Terminal Aerodrome Forecast
Issued by NWS

Home | Current Version | Previous Version | Text Only | Print | Product List | Glossary On
Versions: 1 2 3 4 5 6 7 8 9 10 11 12 13 14 15
000
FTUS45 KABQ 261126
TAFLVS
TAF
KLVS 261126Z 2612/2712 06005KT P6SM BKN060
     FM261600 20011KT P6SM BKN070
     FM261900 23015G25KT P6SM VCSH BKN070
     FM262100 25012KT P6SM VCTS OVC060CB
     FM270000 26008KT P6SM BKN080
     FM270400 19007KT P6SM BKN100=

USA.gov is the U.S. government's official web portal to all federal, state and local government web resources and services.